Main page
METAR-TAF:

METAR-TAF

Airports :

Heimdal, Norway

Oil platform

latitude: 59-34-12N, longitude: 2-13-48E, elevation: 10 m

Current weather observation

The report was made 36 minutes ago, at 18:20 UTC
Wind 2 kt from variable directions
Temperature 6°C
Humidity 100%
Pressure 1027 hPa
Visibility: 0250 m
light rain, fog

METAR: ENHM 261820Z AUTO VRB02KT 0250NDV -RA FG FEW004/// BKN016/// 06/06 Q1027 W08/S4

Time: 20:56 (18:56 UTC)

Forecast

The report was made 4 hours and 56 minutes ago, at 14:00 UTC
Forecast valid from 26 at 15 UTC to 26 at 18 UTC
Wind 8 kt from the West/Northwest
Visibility 10 km or more
Few clouds at a height of 300 ft
Broken clouds at a height of 800 ft
Temporary
from 26 at 15 UTC to 26 at 18 UTC
Visibility: 0500 m
at a height of 200 ft
fog

TAF: ENHM 261400Z 2615/2618 30008KT 9999 FEW003 BKN008 TEMPO 2615/2618 0500 FG VV002

Weather observations and forecasts of more than 4000 airports (METAR and TAF reports).

The available stations are represented by yellow and red dots on the map.

Hover mouse over dot to see the name of the station.

Then click to see weather observations and forecasts.

To change the map : click on the green buttons with a black cross to zoom in, on the green button with a dash to zoom out, or on the green arrows for adjacent maps.


METAR-TAF: